Terminal Aerodrome Forecast
Issued by NWS

Home | Current Version | Previous Version | Text Only | Print | Product List | Glossary On
Versions: 1 2 3 4 5 6 7 8 9 10 11 12 13 14 15
802
FTUS43 KSGF 071738
TAFBBG
TAF
KBBG 071738Z 0718/0818 27014G20KT P6SM OVC200
     FM080000 29008KT P6SM OVC200
     FM080500 30012KT P6SM OVC100
     FM080900 30014G18KT P6SM BKN050 OVC100
     FM081400 30017G27KT P6SM OVC050=

USA.gov is the U.S. government's official web portal to all federal, state and local government web resources and services.